createdAt,value
2022-08-07T00:00:15.412Z,1.35
2022-08-07T00:03:04.234Z,1.40
2022-08-07T00:05:32.411Z,1.33
2022-08-07T00:08:04.907Z,1.08
2022-08-07T00:10:32.546Z,1.30
2022-08-07T00:13:24.074Z,1.50
2022-08-07T00:15:52.884Z,1.42
2022-08-07T00:18:27.881Z,1.25
2022-08-07T00:21:08.121Z,1.42
2022-08-07T00:23:52.082Z,1.00
2022-08-07T00:26:49.121Z,1.20
2022-08-07T00:29:06.111Z,1.20
2022-08-07T00:31:37.954Z,1.20
2022-08-07T00:34:09.662Z,1.00
2022-08-07T00:36:42.944Z,1.30
2022-08-07T00:39:16.251Z,1.20
2022-08-07T00:41:53.655Z,1.27
2022-08-07T00:44:28.110Z,1.02
2022-08-07T00:46:55.482Z,1.10
2022-08-07T00:49:24.899Z,1.27
2022-08-07T00:52:10.579Z,1.33
2022-08-07T00:54:40.804Z,1.25
2022-08-07T00:57:10.072Z,1.00
2022-08-07T00:59:39.602Z,1.15
2022-08-07T01:02:13.935Z,1.00
2022-08-07T01:04:58.360Z,0.88
2022-08-07T01:07:28.641Z,1.00
2022-08-07T01:10:04.708Z,1.25
2022-08-07T01:12:36.638Z,1.10
2022-08-07T01:15:07.179Z,1.30
2022-08-07T01:17:40.025Z,1.20
2022-08-07T01:20:16.717Z,1.05
2022-08-07T01:22:47.032Z,2.05
2022-08-07T01:25:53.645Z,1.27
2022-08-07T01:28:22.163Z,1.35
2022-08-07T01:30:51.208Z,1.23
2022-08-07T01:33:19.265Z,0.80
2022-08-07T01:35:53.302Z,1.15
2022-08-07T01:38:25.038Z,1.25
2022-08-07T01:40:59.533Z,1.42
2022-08-07T01:43:34.591Z,1.20
2022-08-07T01:46:05.578Z,1.23
2022-08-07T01:48:35.812Z,1.25
2022-08-07T01:52:00.916Z,1.30
2022-08-07T01:54:12.475Z,1.30
2022-08-07T01:56:56.567Z,1.30
2022-08-07T01:59:43.765Z,1.45
2022-08-07T02:02:32.803Z,1.40
2022-08-07T02:05:43.361Z,1.40
2022-08-07T02:08:14.754Z,1.25
2022-08-07T02:10:44.702Z,1.92
2022-08-07T02:13:27.644Z,1.50
2022-08-07T02:16:14.887Z,1.30
2022-08-07T02:18:47.075Z,1.40
2022-08-07T02:21:17.357Z,1.13
2022-08-07T02:23:47.725Z,1.20
2022-08-07T02:26:32.313Z,1.10
2022-08-07T02:29:05.032Z,1.30
2022-08-07T02:31:34.589Z,1.08
2022-08-07T02:34:11.682Z,1.40
2022-08-07T02:36:46.153Z,1.30
2022-08-07T02:39:43.403Z,1.10
2022-08-07T02:42:10.278Z,1.10
2022-08-07T02:44:48.057Z,1.20
2022-08-07T02:47:19.495Z,1.40
2022-08-07T02:49:58.784Z,1.45
2022-08-07T02:52:37.272Z,1.10
2022-08-07T02:55:27.623Z,1.33
2022-08-07T02:58:03.079Z,1.58
2022-08-07T03:00:36.069Z,1.33
2022-08-07T03:03:13.531Z,1.48
2022-08-07T03:05:54.346Z,1.40
2022-08-07T03:08:29.089Z,1.27
2022-08-07T03:10:57.942Z,1.10
2022-08-07T03:13:25.566Z,1.40
2022-08-07T03:15:58.695Z,1.10
2022-08-07T03:18:34.991Z,1.00
2022-08-07T03:21:08.261Z,1.33
2022-08-07T03:24:20.022Z,1.33
2022-08-07T03:26:32.577Z,1.90
2022-08-07T03:29:03.973Z,1.75
2022-08-07T03:31:43.378Z,1.45
2022-08-07T03:34:18.783Z,1.52
2022-08-07T03:36:53.277Z,1.35
2022-08-07T03:39:46.069Z,1.20
2022-08-07T03:42:12.662Z,1.30
2022-08-07T03:44:40.487Z,1.40
2022-08-07T03:47:13.330Z,1.40
2022-08-07T03:49:49.916Z,1.38
2022-08-07T03:52:26.657Z,1.67
2022-08-07T03:55:06.593Z,1.25
2022-08-07T03:58:34.082Z,1.40
2022-08-07T04:00:30.190Z,1.60
2022-08-07T04:02:59.635Z,1.95
2022-08-07T04:05:40.666Z,1.50
2022-08-07T04:08:16.180Z,1.33
2022-08-07T04:10:54.163Z,1.40
2022-08-07T04:14:09.459Z,1.80
2022-08-07T04:16:31.107Z,1.70
2022-08-07T04:19:12.409Z,1.45
2022-08-07T04:21:58.748Z,1.35
2022-08-07T04:24:34.215Z,1.67
2022-08-07T04:27:06.058Z,1.58
2022-08-07T04:29:58.622Z,1.55
2022-08-07T04:32:34.396Z,1.70
2022-08-07T04:35:06.306Z,1.48
2022-08-07T04:37:52.945Z,1.50
2022-08-07T04:40:29.672Z,1.80
2022-08-07T04:43:01.260Z,1.90
2022-08-07T04:46:02.399Z,2.85
2022-08-07T04:49:03.430Z,2.10
2022-08-07T04:51:56.130Z,1.90
2022-08-07T04:54:58.180Z,2.10
2022-08-07T04:58:26.157Z,2.63
2022-08-07T05:00:47.605Z,2.20
2022-08-07T05:03:38.755Z,2.63
2022-08-07T05:06:19.972Z,2.30
2022-08-07T05:09:08.420Z,2.33
2022-08-07T05:11:56.892Z,2.50
2022-08-07T05:14:55.621Z,2.80
2022-08-07T05:17:50.938Z,2.28
2022-08-07T05:20:25.702Z,2.70
2022-08-07T05:22:59.676Z,1.95
2022-08-07T05:25:37.420Z,2.33
2022-08-07T05:28:22.725Z,2.45
2022-08-07T05:30:54.348Z,2.33
2022-08-07T05:33:23.578Z,1.75
2022-08-07T05:35:55.390Z,2.20
2022-08-07T05:39:01.013Z,1.90
2022-08-07T05:41:16.625Z,1.60
2022-08-07T05:44:12.023Z,2.08
2022-08-07T05:46:42.891Z,1.50
2022-08-07T05:49:14.583Z,1.73
2022-08-07T05:51:46.409Z,1.60
2022-08-07T05:54:31.289Z,1.60
2022-08-07T05:57:06.319Z,1.63
2022-08-07T05:59:57.449Z,1.80
2022-08-07T06:02:30.724Z,1.38
2022-08-07T06:05:10.893Z,1.20
2022-08-07T06:08:13.854Z,1.20
2022-08-07T06:10:32.262Z,1.25
2022-08-07T06:13:03.376Z,1.40
2022-08-07T06:15:41.884Z,1.50
2022-08-07T06:18:14.120Z,1.33
2022-08-07T06:20:50.228Z,1.50
2022-08-07T06:24:37.638Z,1.15
2022-08-07T06:26:20.133Z,1.10
2022-08-07T06:28:54.315Z,1.35
2022-08-07T06:31:24.306Z,1.17
2022-08-07T06:34:09.659Z,1.02
2022-08-07T06:36:40.451Z,1.15
2022-08-07T06:40:16.274Z,0.80
2022-08-07T06:42:07.824Z,1.08
2022-08-07T06:44:39.906Z,1.05
2022-08-07T06:47:10.222Z,1.08
2022-08-07T06:49:52.322Z,1.55
2022-08-07T06:52:36.451Z,0.82
2022-08-07T06:55:32.586Z,1.25
2022-08-07T06:58:14.518Z,1.25
2022-08-07T07:00:45.975Z,1.48
2022-08-07T07:03:17.128Z,0.90
2022-08-07T07:06:02.839Z,1.10
2022-08-07T07:08:33.817Z,0.77
2022-08-07T07:11:13.829Z,1.38
2022-08-07T07:13:58.715Z,1.00
2022-08-07T07:16:44.997Z,1.08
2022-08-07T07:19:56.553Z,1.52
2022-08-07T07:22:37.049Z,1.10
2022-08-07T07:25:14.240Z,0.95
2022-08-07T07:28:29.614Z,1.00
2022-08-07T07:31:21.571Z,1.13
2022-08-07T07:33:57.190Z,1.00
2022-08-07T07:36:29.643Z,0.90
2022-08-07T07:39:04.380Z,0.98
2022-08-07T07:42:01.884Z,0.98
2022-08-07T07:44:26.562Z,1.10
2022-08-07T07:47:04.296Z,0.82
2022-08-07T07:50:33.944Z,1.05
2022-08-07T07:52:37.601Z,0.80
2022-08-07T07:55:09.380Z,1.00
2022-08-07T07:57:51.862Z,0.88
2022-08-07T08:00:29.690Z,1.25
2022-08-07T08:03:08.506Z,1.50
2022-08-07T08:05:50.797Z,1.10
2022-08-07T08:08:34.835Z,1.00
2022-08-07T08:11:13.498Z,1.08
2022-08-07T08:13:54.996Z,1.05
2022-08-07T08:16:38.028Z,0.90
2022-08-07T08:19:17.666Z,1.10
2022-08-07T08:22:17.376Z,0.90
2022-08-07T08:25:18.963Z,0.80
2022-08-07T08:28:03.668Z,1.10
2022-08-07T08:30:42.481Z,1.00
2022-08-07T08:33:17.026Z,0.70
2022-08-07T08:35:49.890Z,0.90
2022-08-07T08:38:29.573Z,0.90
2022-08-07T08:41:11.989Z,1.33
2022-08-07T08:44:08.636Z,0.88
2022-08-07T08:46:49.191Z,1.10
2022-08-07T08:50:02.517Z,0.75
2022-08-07T08:53:01.005Z,1.05
2022-08-07T08:56:12.079Z,0.90
2022-08-07T08:59:12.856Z,1.10
2022-08-07T09:01:53.488Z,0.90
2022-08-07T09:04:46.924Z,1.10
2022-08-07T09:07:46.521Z,1.25
2022-08-07T09:10:34.110Z,0.68
2022-08-07T09:13:14.750Z,0.80
2022-08-07T09:16:24.458Z,1.02
2022-08-07T09:19:52.744Z,0.70
2022-08-07T09:24:33.849Z,0.85
2022-08-07T09:25:55.192Z,0.90
2022-08-07T09:30:02.217Z,1.00
2022-08-07T09:31:48.410Z,0.95
2022-08-07T09:34:57.752Z,0.80
2022-08-07T09:37:48.505Z,0.80
2022-08-07T09:40:37.952Z,0.90
2022-08-07T09:44:10.327Z,1.00
2022-08-07T09:47:50.209Z,1.30
2022-08-07T09:50:30.726Z,0.70
2022-08-07T09:53:07.353Z,0.50
2022-08-07T09:56:13.858Z,0.70
2022-08-07T09:59:13.853Z,0.70
2022-08-07T10:02:01.646Z,0.65
2022-08-07T10:04:57.136Z,0.60
2022-08-07T10:11:16.721Z,0.60
2022-08-07T10:14:01.744Z,0.70
2022-08-07T10:17:20.125Z,1.02
2022-08-07T10:20:30.463Z,0.80
2022-08-07T10:24:04.830Z,0.93
2022-08-07T10:27:19.206Z,0.70
2022-08-07T10:30:13.290Z,0.80
2022-08-07T10:33:08.531Z,0.80
2022-08-07T10:36:29.309Z,0.75
2022-08-07T10:39:18.632Z,1.00
2022-08-07T10:42:09.690Z,0.90
2022-08-07T10:45:01.342Z,0.95
2022-08-07T10:48:09.703Z,1.30
2022-08-07T10:50:50.956Z,0.60
2022-08-07T10:53:25.080Z,0.60
2022-08-07T10:56:20.790Z,0.70
2022-08-07T10:59:38.429Z,1.33
2022-08-07T11:02:49.423Z,1.00
2022-08-07T11:05:49.063Z,0.80
2022-08-07T11:08:58.660Z,0.80
2022-08-07T11:11:39.613Z,0.75
2022-08-07T11:14:44.102Z,0.80
2022-08-07T11:17:45.154Z,0.80
2022-08-07T11:20:24.881Z,0.80
2022-08-07T11:23:20.772Z,0.50
2022-08-07T11:26:33.737Z,0.70
2022-08-07T11:29:42.712Z,0.52
2022-08-07T11:32:29.157Z,0.80
2022-08-07T11:35:03.849Z,0.82
2022-08-07T11:38:10.324Z,0.90
2022-08-07T11:41:02.148Z,0.70
2022-08-07T11:44:12.682Z,1.15
2022-08-07T11:47:13.826Z,0.70
2022-08-07T11:50:31.508Z,0.90
2022-08-07T11:53:21.889Z,1.10
2022-08-07T11:56:34.441Z,0.90
2022-08-07T12:00:12.225Z,0.88
2022-08-07T12:02:40.421Z,0.60
2022-08-07T12:06:37.980Z,1.23
2022-08-07T12:09:01.730Z,0.60
2022-08-07T12:12:10.267Z,1.00
2022-08-07T12:15:35.771Z,0.85
2022-08-07T12:18:32.911Z,0.80
2022-08-07T12:22:35.854Z,1.00
2022-08-07T12:26:06.139Z,0.90
2022-08-07T12:28:57.872Z,0.55
2022-08-07T12:31:52.755Z,0.60
2022-08-07T12:34:39.453Z,1.13
2022-08-07T12:37:17.011Z,0.60
2022-08-07T12:39:55.534Z,0.80
2022-08-07T12:42:31.917Z,0.73
2022-08-07T12:45:11.979Z,0.80
2022-08-07T12:48:28.232Z,0.70
2022-08-07T12:51:17.634Z,0.98
2022-08-07T12:54:03.036Z,0.60
2022-08-07T12:56:55.061Z,0.57
2022-08-07T12:59:33.324Z,0.70
2022-08-07T13:02:52.706Z,0.75
2022-08-07T13:06:17.033Z,0.73
2022-08-07T13:10:11.000Z,1.17
2022-08-07T13:12:50.612Z,0.50
2022-08-07T13:15:59.019Z,0.50
2022-08-07T13:18:44.685Z,0.70
2022-08-07T13:21:51.099Z,0.90
2022-08-07T13:24:30.778Z,0.60
2022-08-07T13:27:12.903Z,0.90
2022-08-07T13:30:03.998Z,1.30
2022-08-07T13:34:32.092Z,0.77
2022-08-07T13:36:25.772Z,0.73
2022-08-07T13:39:11.174Z,0.73
2022-08-07T13:41:57.420Z,1.42
2022-08-07T13:44:34.548Z,0.98
2022-08-07T13:47:09.439Z,0.77
2022-08-07T13:50:33.730Z,0.70
2022-08-07T13:52:41.419Z,0.70
2022-08-07T13:55:26.405Z,0.68
2022-08-07T13:58:31.743Z,0.70
2022-08-07T14:01:09.009Z,0.60
2022-08-07T14:04:06.836Z,0.70
2022-08-07T14:06:39.009Z,0.70
2022-08-07T14:09:17.020Z,0.73
2022-08-07T14:12:10.494Z,0.70
2022-08-07T14:14:54.573Z,0.60
2022-08-07T14:18:13.169Z,0.80
2022-08-07T14:20:42.284Z,0.65
2022-08-07T14:23:58.672Z,0.82
2022-08-07T14:26:29.808Z,0.75
2022-08-07T14:29:08.902Z,0.73
2022-08-07T14:31:55.951Z,0.95
2022-08-07T14:34:29.934Z,0.82
2022-08-07T14:37:07.724Z,0.70
2022-08-07T14:40:17.031Z,0.73
2022-08-07T14:43:01.399Z,0.80
2022-08-07T14:45:46.938Z,1.00
2022-08-07T14:48:21.056Z,0.90
2022-08-07T14:50:53.926Z,1.02
2022-08-07T14:54:03.679Z,0.82
2022-08-07T14:56:29.481Z,0.98
2022-08-07T15:01:52.316Z,1.35
2022-08-07T15:04:25.040Z,1.10
2022-08-07T15:06:53.286Z,1.25
2022-08-07T15:09:58.351Z,0.95
2022-08-07T15:18:14.139Z,0.90
2022-08-07T15:25:13.966Z,0.80
2022-08-07T15:26:51.824Z,0.68
2022-08-07T15:32:13.296Z,0.70
2022-08-07T15:34:50.619Z,0.88
2022-08-07T15:37:28.875Z,0.70
2022-08-07T15:40:34.573Z,0.80
2022-08-07T15:43:53.116Z,0.80
2022-08-07T15:46:37.655Z,0.60
2022-08-07T15:49:15.226Z,1.00
2022-08-07T15:54:40.623Z,0.95
2022-08-07T15:57:27.765Z,0.80
2022-08-07T16:00:07.801Z,1.33
2022-08-07T16:02:46.904Z,1.60
2022-08-07T16:05:23.262Z,2.03
2022-08-07T16:08:33.647Z,0.80
2022-08-07T16:11:28.675Z,0.70
2022-08-07T16:14:48.597Z,1.00
2022-08-07T16:18:02.315Z,1.30
2022-08-07T16:20:43.168Z,0.88
2022-08-07T16:23:58.309Z,0.90
2022-08-07T16:26:30.800Z,0.88
2022-08-07T16:30:11.777Z,0.90
2022-08-07T16:34:02.931Z,0.70
2022-08-07T16:37:01.573Z,0.60
2022-08-07T16:40:28.408Z,0.80
2022-08-07T16:43:23.767Z,0.80
2022-08-07T16:47:06.487Z,0.70
2022-08-07T16:50:20.622Z,0.90
2022-08-07T16:52:57.567Z,0.80
2022-08-07T16:56:15.434Z,0.90
2022-08-07T16:59:21.327Z,0.85
2022-08-07T17:02:52.287Z,0.60
2022-08-07T17:06:19.445Z,0.70
2022-08-07T17:09:09.070Z,0.80
2022-08-07T17:12:35.911Z,0.95
2022-08-07T17:15:43.812Z,0.88
2022-08-07T17:18:46.161Z,0.85
2022-08-07T17:21:24.489Z,0.80
2022-08-07T17:24:14.406Z,0.80
2022-08-07T17:27:19.739Z,1.00
2022-08-07T17:30:15.230Z,0.80
2022-08-07T17:34:09.143Z,0.90
2022-08-07T17:35:55.295Z,0.95
2022-08-07T17:38:55.461Z,0.82
2022-08-07T17:42:01.788Z,1.27
2022-08-07T17:44:45.235Z,0.80
2022-08-07T17:47:43.074Z,0.80
2022-08-07T17:50:47.197Z,1.05
2022-08-07T17:54:13.165Z,0.90
2022-08-07T17:57:20.899Z,1.40
2022-08-07T17:59:56.471Z,0.68
2022-08-07T18:02:38.873Z,1.00
2022-08-07T18:05:28.604Z,0.85
2022-08-07T18:08:36.344Z,0.90
2022-08-07T18:12:06.651Z,1.20
2022-08-07T18:14:46.398Z,1.33
2022-08-07T18:18:47.599Z,1.00
2022-08-07T18:21:02.657Z,0.70
2022-08-07T18:23:58.475Z,0.65
2022-08-07T18:26:54.183Z,0.82
2022-08-07T18:30:06.129Z,0.73
2022-08-07T18:33:15.974Z,1.02
2022-08-07T18:36:14.108Z,1.08
2022-08-07T18:40:08.615Z,1.30
2022-08-07T18:42:42.291Z,1.00
2022-08-07T18:45:45.075Z,1.08
2022-08-07T18:50:31.694Z,0.90
2022-08-07T18:52:25.516Z,1.40
2022-08-07T18:54:51.003Z,1.00
2022-08-07T18:57:43.360Z,1.73
2022-08-07T19:01:00.834Z,1.15
2022-08-07T19:03:51.926Z,1.17
2022-08-07T19:06:37.055Z,1.20
2022-08-07T19:09:55.487Z,1.50
2022-08-07T19:12:58.319Z,1.10
2022-08-07T19:16:05.527Z,1.10
2022-08-07T19:19:00.375Z,1.15
2022-08-07T19:21:44.223Z,2.33
2022-08-07T19:24:43.598Z,1.60
2022-08-07T19:28:58.313Z,1.40
2022-08-07T19:31:03.179Z,1.52
2022-08-07T19:33:08.234Z,1.70
2022-08-07T19:35:43.837Z,1.48
2022-08-07T19:38:17.183Z,2.70
2022-08-07T19:40:51.314Z,1.17
2022-08-07T19:43:48.889Z,1.20
2022-08-07T19:46:19.038Z,1.10
2022-08-07T19:49:08.703Z,1.27
2022-08-07T19:51:53.319Z,1.30
2022-08-07T19:54:35.070Z,1.17
2022-08-07T19:58:03.044Z,0.90
2022-08-07T20:00:38.568Z,1.00
2022-08-07T20:03:35.591Z,1.45
2022-08-07T20:06:14.322Z,1.08
2022-08-07T20:08:50.698Z,1.00
2022-08-07T20:11:34.314Z,1.23
2022-08-07T20:14:13.739Z,1.00
2022-08-07T20:16:54.376Z,1.00
2022-08-07T20:19:28.627Z,1.17
2022-08-07T20:22:14.391Z,1.20
2022-08-07T20:24:51.311Z,2.35
2022-08-07T20:27:47.787Z,1.10
2022-08-07T20:30:13.177Z,0.95
2022-08-07T20:32:57.501Z,0.98
2022-08-07T20:35:54.378Z,0.95
2022-08-07T20:38:33.248Z,0.73
2022-08-07T20:41:05.495Z,1.10
2022-08-07T20:43:36.467Z,0.95
2022-08-07T20:46:28.096Z,1.20
2022-08-07T20:49:59.231Z,1.40
2022-08-07T20:51:50.774Z,1.00
2022-08-07T20:54:29.717Z,1.20
2022-08-07T20:57:03.743Z,1.00
2022-08-07T21:00:04.657Z,1.00
2022-08-07T21:02:54.349Z,0.90
2022-08-07T21:05:54.464Z,1.00
2022-08-07T21:08:37.520Z,1.17
2022-08-07T21:11:14.197Z,1.45
2022-08-07T21:14:16.239Z,1.40
2022-08-07T21:18:00.692Z,1.77
2022-08-07T21:19:51.706Z,1.70
2022-08-07T21:22:31.361Z,1.48
2022-08-07T21:25:13.167Z,1.70
2022-08-07T21:28:01.671Z,1.50
2022-08-07T21:30:50.329Z,1.20
2022-08-07T21:33:29.414Z,1.60
2022-08-07T21:36:35.725Z,1.80
2022-08-07T21:39:51.665Z,1.60
2022-08-07T21:42:54.866Z,1.40
2022-08-07T21:46:09.795Z,1.60
2022-08-07T21:48:55.806Z,1.45
2022-08-07T21:51:57.646Z,1.42
2022-08-07T21:54:38.491Z,1.50
2022-08-07T21:58:02.075Z,1.40
2022-08-07T22:00:32.365Z,1.25
2022-08-07T22:03:31.721Z,1.30
2022-08-07T22:06:07.666Z,1.80
2022-08-07T22:08:59.605Z,1.08
2022-08-07T22:11:52.900Z,1.10
2022-08-07T22:14:23.903Z,1.27
2022-08-07T22:17:07.211Z,1.13
2022-08-07T22:20:08.718Z,1.00
2022-08-07T22:23:01.642Z,1.17
2022-08-07T22:25:50.788Z,1.00
2022-08-07T22:28:53.290Z,1.30
2022-08-07T22:31:55.889Z,1.17
2022-08-07T22:35:07.908Z,1.10
2022-08-07T22:38:03.255Z,0.90
2022-08-07T22:41:16.393Z,1.20
2022-08-07T22:43:51.838Z,1.05
2022-08-07T22:47:03.344Z,1.52
2022-08-07T22:50:33.506Z,0.90
2022-08-07T22:54:08.788Z,1.52
2022-08-07T22:57:16.858Z,1.17
2022-08-07T23:00:08.618Z,1.00
2022-08-07T23:03:09.232Z,1.30
2022-08-07T23:06:09.777Z,1.00
2022-08-07T23:10:04.474Z,1.00
2022-08-07T23:13:08.070Z,1.40
2022-08-07T23:16:46.876Z,1.40
2022-08-07T23:19:51.725Z,1.20
2022-08-07T23:22:55.493Z,1.25
2022-08-07T23:26:10.069Z,1.33
2022-08-07T23:29:43.609Z,1.10
2022-08-07T23:34:19.766Z,0.90
2022-08-07T23:35:58.010Z,1.30
2022-08-07T23:38:54.940Z,1.00
2022-08-07T23:42:23.937Z,1.00
2022-08-07T23:45:06.756Z,1.38
2022-08-07T23:48:32.525Z,1.45
2022-08-07T23:52:58.764Z,1.58
2022-08-07T23:54:36.277Z,1.23
2022-08-07T23:57:47.435Z,1.25
